createdAt,value
2022-07-28T00:00:35.197Z,101504.38
2022-07-28T00:03:42.024Z,101507.63
2022-07-28T00:06:47.830Z,101511.25
2022-07-28T00:09:58.241Z,101518.22
2022-07-28T00:13:06.829Z,101507.91
2022-07-28T00:16:12.987Z,101517.66
2022-07-28T00:19:20.325Z,101524.34
2022-07-28T00:22:25.854Z,101517.63
2022-07-28T00:25:31.030Z,101523.00
2022-07-28T00:28:36.788Z,101519.53
2022-07-28T00:31:42.137Z,101525.78
2022-07-28T00:34:49.129Z,101526.53
2022-07-28T00:37:59.208Z,101532.75
2022-07-28T00:41:14.329Z,101533.63
2022-07-28T00:44:19.578Z,101529.94
2022-07-28T00:47:24.922Z,101532.38
2022-07-28T00:50:31.759Z,101534.16
2022-07-28T00:53:37.313Z,101526.91
2022-07-28T00:56:42.699Z,101526.75
2022-07-28T00:59:47.929Z,101525.19
2022-07-28T01:02:53.317Z,101528.59
2022-07-28T01:06:11.281Z,101551.13
2022-07-28T01:09:39.715Z,101548.56
2022-07-28T01:12:52.480Z,101547.25
2022-07-28T01:16:03.127Z,101556.72
2022-07-28T01:19:18.713Z,101550.50
2022-07-28T01:22:29.345Z,101550.00
2022-07-28T01:25:48.178Z,101557.44
2022-07-28T01:29:08.253Z,101556.78
2022-07-28T01:32:20.813Z,101557.72
2022-07-28T01:35:30.417Z,101556.81
2022-07-28T01:38:37.257Z,101551.25
2022-07-28T01:41:44.478Z,101549.63
2022-07-28T01:44:51.998Z,101561.72
2022-07-28T01:48:01.607Z,101558.94
2022-07-28T01:51:08.853Z,101560.25
2022-07-28T01:54:14.610Z,101566.03
2022-07-28T01:57:21.492Z,101568.03
2022-07-28T02:00:28.032Z,101567.94
2022-07-28T02:03:35.843Z,101569.81
2022-07-28T02:06:43.768Z,101570.81
2022-07-28T02:09:49.760Z,101568.34
2022-07-28T02:12:56.685Z,101568.19
2022-07-28T02:16:04.023Z,101577.81
2022-07-28T02:19:10.876Z,101571.88
2022-07-28T02:22:19.037Z,101587.47
2022-07-28T02:25:24.361Z,101585.22
2022-07-28T02:28:30.023Z,101583.03
2022-07-28T02:31:42.217Z,101579.03
2022-07-28T02:34:51.077Z,101589.97
2022-07-28T02:38:03.133Z,101595.72
2022-07-28T02:41:13.725Z,101596.81
2022-07-28T02:44:22.925Z,101600.13
2022-07-28T02:47:30.265Z,101604.38
2022-07-28T02:50:36.828Z,101614.78
2022-07-28T02:53:42.136Z,101609.03
2022-07-28T02:56:53.123Z,101601.22
2022-07-28T02:59:59.185Z,101611.00
2022-07-28T03:03:04.854Z,101626.00
2022-07-28T03:06:12.765Z,101618.97
2022-07-28T03:09:18.132Z,101610.25
2022-07-28T03:12:23.459Z,101630.25
2022-07-28T03:15:28.867Z,101625.16
2022-07-28T03:18:34.665Z,101639.56
2022-07-28T03:21:41.985Z,101627.63
2022-07-28T03:24:51.768Z,101644.81
2022-07-28T03:27:58.276Z,101643.66
2022-07-28T03:31:08.669Z,101645.81
2022-07-28T03:34:14.486Z,101649.50
2022-07-28T03:37:27.556Z,101642.34
2022-07-28T03:40:33.849Z,101652.91
2022-07-28T03:43:39.766Z,101658.81
2022-07-28T03:46:45.977Z,101647.91
2022-07-28T03:49:51.426Z,101651.22
2022-07-28T03:52:59.544Z,101657.19
2022-07-28T03:56:05.733Z,101662.31
2022-07-28T03:59:11.996Z,101667.66
2022-07-28T04:02:17.196Z,101664.94
2022-07-28T04:05:22.715Z,101671.69
2022-07-28T04:08:29.633Z,101680.13
2022-07-28T04:11:34.835Z,101675.94
2022-07-28T04:14:40.145Z,101680.97
2022-07-28T04:17:46.014Z,101685.81
2022-07-28T04:20:51.197Z,101675.81
2022-07-28T04:24:01.843Z,101687.78
2022-07-28T04:27:08.013Z,101685.34
2022-07-28T04:30:17.594Z,101692.94
2022-07-28T04:33:22.969Z,101686.13
2022-07-28T04:36:28.106Z,101683.34
2022-07-28T04:39:35.316Z,101697.16
2022-07-28T04:42:41.208Z,101685.50
2022-07-28T04:45:53.545Z,101685.72
2022-07-28T04:48:59.666Z,101700.25
2022-07-28T04:52:05.795Z,101696.13
2022-07-28T04:55:12.295Z,101694.16
2022-07-28T04:58:36.692Z,101704.28
2022-07-28T05:01:43.423Z,101712.16
2022-07-28T05:04:48.755Z,101719.69
2022-07-28T05:07:54.597Z,101723.69
2022-07-28T05:11:01.247Z,101724.19
2022-07-28T05:14:06.726Z,101727.78
2022-07-28T05:17:17.705Z,101728.56
2022-07-28T05:20:22.961Z,101728.84
2022-07-28T05:23:28.752Z,101736.66
2022-07-28T05:26:35.310Z,101743.16
2022-07-28T05:29:46.765Z,101743.06
2022-07-28T05:32:53.983Z,101751.13
2022-07-28T05:35:59.457Z,101753.66
2022-07-28T05:39:05.031Z,101747.75
2022-07-28T05:42:12.780Z,101751.47
2022-07-28T05:45:18.094Z,101756.84
2022-07-28T05:48:23.808Z,101759.78
2022-07-28T05:51:28.976Z,101763.75
2022-07-28T05:54:33.866Z,101762.22
2022-07-28T05:57:41.438Z,101756.47
2022-07-28T06:00:46.738Z,101767.59
2022-07-28T06:04:09.969Z,101768.19
2022-07-28T06:07:15.626Z,101769.78
2022-07-28T06:10:24.890Z,101773.38
2022-07-28T06:13:31.834Z,101776.63
2022-07-28T06:16:37.210Z,101776.53
2022-07-28T06:19:42.446Z,101781.88
2022-07-28T06:22:49.675Z,101781.34
2022-07-28T06:25:55.932Z,101786.63
2022-07-28T06:29:02.395Z,101785.19
2022-07-28T06:32:07.943Z,101796.81
2022-07-28T06:35:14.885Z,101786.41
2022-07-28T06:38:20.810Z,101789.13
2022-07-28T06:41:27.159Z,101797.22
2022-07-28T06:44:57.439Z,101793.00
2022-07-28T06:47:59.045Z,101802.31
2022-07-28T06:51:04.325Z,101807.34
2022-07-28T06:54:11.534Z,101804.31
2022-07-28T06:57:16.987Z,101807.50
2022-07-28T07:00:23.724Z,101804.78
2022-07-28T07:03:29.093Z,101811.44
2022-07-28T07:06:34.172Z,101805.25
2022-07-28T07:09:40.095Z,101806.94
2022-07-28T07:12:45.235Z,101810.03
2022-07-28T07:15:51.964Z,101809.81
2022-07-28T07:18:57.294Z,101808.25
2022-07-28T07:22:02.796Z,101810.06
2022-07-28T07:25:11.710Z,101809.69
2022-07-28T07:28:17.139Z,101823.88
2022-07-28T07:31:30.037Z,101816.66
2022-07-28T07:34:35.637Z,101831.88
2022-07-28T07:37:40.937Z,101828.16
2022-07-28T07:40:46.305Z,101822.66
2022-07-28T07:43:51.513Z,101828.16
2022-07-28T07:46:58.055Z,101827.59
2022-07-28T07:50:04.609Z,101828.13
2022-07-28T07:53:12.639Z,101812.94
2022-07-28T07:56:18.494Z,101809.63
2022-07-28T07:59:23.650Z,101817.25
2022-07-28T08:02:30.400Z,101822.25
2022-07-28T08:05:36.473Z,101820.94
2022-07-28T08:08:46.436Z,101825.66
2022-07-28T08:11:53.636Z,101838.06
2022-07-28T08:14:58.806Z,101837.81
2022-07-28T08:18:06.010Z,101839.03
2022-07-28T08:21:14.999Z,101834.84
2022-07-28T08:24:33.013Z,101825.84
2022-07-28T08:27:39.286Z,101828.06
2022-07-28T08:30:44.808Z,101839.19
2022-07-28T08:33:53.709Z,101848.56
2022-07-28T08:36:59.919Z,101848.19
2022-07-28T08:40:06.866Z,101848.88
2022-07-28T08:43:24.891Z,101859.53
2022-07-28T08:46:36.155Z,101854.78
2022-07-28T08:49:44.185Z,101852.31
2022-07-28T08:52:52.189Z,101851.19
2022-07-28T08:56:03.536Z,101863.94
2022-07-28T08:59:09.311Z,101866.50
2022-07-28T09:02:15.333Z,101872.59
2022-07-28T09:05:23.812Z,101877.28
2022-07-28T09:08:29.042Z,101867.56
2022-07-28T09:11:34.134Z,101876.03
2022-07-28T09:14:39.357Z,101877.84
2022-07-28T09:17:44.985Z,101882.72
2022-07-28T09:20:51.856Z,101873.16
2022-07-28T09:23:57.090Z,101877.47
2022-07-28T09:27:06.787Z,101890.53
2022-07-28T09:30:14.025Z,101886.78
2022-07-28T09:33:43.047Z,101897.97
2022-07-28T09:36:48.938Z,101889.84
2022-07-28T09:39:59.057Z,101898.84
2022-07-28T09:43:05.764Z,101907.34
2022-07-28T09:46:13.360Z,101906.19
2022-07-28T09:49:18.981Z,101895.81
2022-07-28T09:52:33.285Z,101887.59
2022-07-28T09:55:56.589Z,101907.25
2022-07-28T09:59:03.577Z,101889.34
2022-07-28T10:02:09.517Z,101896.78
2022-07-28T10:05:16.875Z,101894.09
2022-07-28T10:08:44.295Z,101892.22
2022-07-28T10:11:49.858Z,101897.34
2022-07-28T10:14:56.993Z,101903.47
2022-07-28T10:18:02.196Z,101899.53
2022-07-28T10:21:10.916Z,101902.25
2022-07-28T10:24:23.596Z,101906.69
2022-07-28T10:27:29.900Z,101902.53
2022-07-28T10:30:41.356Z,101900.25
2022-07-28T10:33:51.786Z,101912.75
2022-07-28T10:36:57.685Z,101917.91
2022-07-28T10:40:10.303Z,101912.28
2022-07-28T10:43:16.789Z,101919.22
2022-07-28T10:46:22.420Z,101910.44
2022-07-28T10:49:32.563Z,101912.28
2022-07-28T10:52:49.913Z,101910.75
2022-07-28T10:56:04.943Z,101909.78
2022-07-28T10:59:31.621Z,101909.25
2022-07-28T11:02:52.496Z,101917.72
2022-07-28T11:05:58.689Z,101909.50
2022-07-28T11:09:25.423Z,101910.91
2022-07-28T11:12:52.421Z,101914.41
2022-07-28T11:16:00.602Z,101913.47
2022-07-28T11:19:36.039Z,101909.41
2022-07-28T11:22:34.219Z,101904.16
2022-07-28T11:25:40.020Z,101904.34
2022-07-28T11:29:20.978Z,101907.44
2022-07-28T11:32:26.510Z,101905.94
2022-07-28T11:35:48.512Z,101905.44
2022-07-28T11:39:24.353Z,101910.78
2022-07-28T11:42:32.426Z,101914.47
2022-07-28T11:45:44.403Z,101914.78
2022-07-28T11:49:26.012Z,101905.38
2022-07-28T11:52:31.206Z,101913.31
2022-07-28T11:55:49.154Z,101911.13
2022-07-28T11:59:04.349Z,101903.34
2022-07-28T12:02:11.444Z,101906.94
2022-07-28T12:05:17.984Z,101910.72
2022-07-28T12:08:24.033Z,101915.00
2022-07-28T12:11:33.968Z,101910.25
2022-07-28T12:14:43.505Z,101909.81
2022-07-28T12:17:51.389Z,101913.91
2022-07-28T12:21:00.535Z,101906.69
2022-07-28T12:24:11.387Z,101908.38
2022-07-28T12:27:17.047Z,101898.31
2022-07-28T12:30:27.949Z,101914.50
2022-07-28T12:33:35.444Z,101917.66
2022-07-28T12:36:40.890Z,101917.25
2022-07-28T12:39:52.712Z,101925.94
2022-07-28T12:42:57.813Z,101921.78
2022-07-28T12:46:03.606Z,101931.84
2022-07-28T12:49:22.781Z,101924.59
2022-07-28T12:52:28.083Z,101924.81
2022-07-28T12:55:33.233Z,101931.50
2022-07-28T12:58:38.505Z,101930.50
2022-07-28T13:01:51.946Z,101914.97
2022-07-28T13:04:58.484Z,101919.72
2022-07-28T13:08:06.361Z,101924.78
2022-07-28T13:11:42.671Z,101924.09
2022-07-28T13:14:41.030Z,101927.28
2022-07-28T13:17:55.053Z,101932.97
2022-07-28T13:21:01.517Z,101936.09
2022-07-28T13:24:07.823Z,101936.19
2022-07-28T13:27:13.778Z,101937.47
2022-07-28T13:30:19.621Z,101939.13
2022-07-28T13:33:26.823Z,101932.88
2022-07-28T13:36:35.176Z,101940.53
2022-07-28T13:39:40.822Z,101934.81
2022-07-28T13:42:52.717Z,101939.81
2022-07-28T13:46:00.180Z,101927.84
2022-07-28T13:49:05.586Z,101940.34
2022-07-28T13:52:33.286Z,101941.44
2022-07-28T13:55:40.618Z,101937.75
2022-07-28T13:58:45.727Z,101950.66
2022-07-28T14:01:50.858Z,101949.91
2022-07-28T14:04:56.480Z,101944.28
2022-07-28T14:08:03.684Z,101948.19
2022-07-28T14:11:09.564Z,101945.56
2022-07-28T14:14:16.987Z,101942.97
2022-07-28T14:17:43.254Z,101945.28
2022-07-28T14:20:50.356Z,101955.16
2022-07-28T14:23:57.002Z,101958.34
2022-07-28T14:27:02.338Z,101956.72
2022-07-28T14:30:09.719Z,101953.78
2022-07-28T14:33:17.169Z,101953.59
2022-07-28T14:36:22.310Z,101959.00
2022-07-28T14:39:28.990Z,101942.84
2022-07-28T14:42:34.385Z,101952.56
2022-07-28T14:46:00.540Z,101931.63
2022-07-28T14:49:04.932Z,101937.72
2022-07-28T14:52:11.969Z,101949.56
2022-07-28T14:55:19.015Z,101947.19
2022-07-28T14:58:24.272Z,101942.91
2022-07-28T15:01:29.583Z,101947.16
2022-07-28T15:04:41.665Z,101947.00
2022-07-28T15:07:49.446Z,101951.06
2022-07-28T15:10:57.786Z,101951.06
2022-07-28T15:14:03.043Z,101948.53
2022-07-28T15:17:08.297Z,101944.78
2022-07-28T15:20:14.234Z,101939.59
2022-07-28T15:23:19.817Z,101946.06
2022-07-28T15:26:27.270Z,101946.31
2022-07-28T15:29:35.656Z,101951.00
2022-07-28T15:32:55.737Z,101949.31
2022-07-28T15:36:02.292Z,101953.25
2022-07-28T15:39:09.295Z,101946.34
2022-07-28T15:42:15.995Z,101948.66
2022-07-28T15:45:21.514Z,101953.31
2022-07-28T15:48:27.227Z,101955.94
2022-07-28T15:51:33.653Z,101954.53
2022-07-28T15:54:38.841Z,101959.84
2022-07-28T15:57:46.534Z,101959.16
2022-07-28T16:00:52.376Z,101963.88
2022-07-28T16:03:58.822Z,101963.59
2022-07-28T16:07:23.455Z,101961.63
2022-07-28T16:10:29.394Z,101965.97
2022-07-28T16:13:37.606Z,101972.16
2022-07-28T16:16:42.982Z,101970.19
2022-07-28T16:19:50.245Z,101968.09
2022-07-28T16:22:56.560Z,101980.25
2022-07-28T16:26:01.741Z,101979.19
2022-07-28T16:29:08.736Z,101964.63
2022-07-28T16:32:13.977Z,101978.75
2022-07-28T16:35:19.984Z,101975.31
2022-07-28T16:38:25.778Z,101975.63
2022-07-28T16:41:47.014Z,101977.06
2022-07-28T16:44:54.882Z,101982.06
2022-07-28T16:48:03.877Z,101971.69
2022-07-28T16:51:11.574Z,101987.53
2022-07-28T16:54:17.461Z,101989.03
2022-07-28T16:57:23.628Z,101991.50
2022-07-28T17:00:31.343Z,101994.16
2022-07-28T17:03:37.142Z,101992.88
2022-07-28T17:06:42.413Z,102000.59
2022-07-28T17:09:47.549Z,102006.78
2022-07-28T17:12:52.875Z,102010.97
2022-07-28T17:15:59.910Z,102017.25
2022-07-28T17:19:05.639Z,102020.41
2022-07-28T17:22:11.424Z,102034.13
2022-07-28T17:28:42.057Z,102042.31
2022-07-28T17:31:49.881Z,102040.59
2022-07-28T17:34:55.623Z,102042.53
2022-07-28T17:38:01.038Z,102037.81
2022-07-28T17:41:09.213Z,102044.91
2022-07-28T17:44:15.285Z,102042.97
2022-07-28T17:47:24.462Z,102045.91
2022-07-28T17:50:42.429Z,102044.13
2022-07-28T17:53:48.852Z,102047.50
2022-07-28T17:56:56.791Z,102050.44
2022-07-28T18:00:01.965Z,102052.19
2022-07-28T18:03:18.969Z,102065.72
2022-07-28T18:06:24.579Z,102062.06
2022-07-28T18:09:30.023Z,102059.69
2022-07-28T18:12:35.263Z,102053.25
2022-07-28T18:15:42.638Z,102067.25
2022-07-28T18:18:49.352Z,102064.41
2022-07-28T18:21:54.667Z,102065.13
2022-07-28T18:25:00.855Z,102067.75
2022-07-28T18:28:08.959Z,102073.56
2022-07-28T18:31:14.494Z,102080.75
2022-07-28T18:34:23.510Z,102079.06
2022-07-28T18:37:31.009Z,102082.03
2022-07-28T18:40:36.828Z,102088.94
2022-07-28T18:43:42.045Z,102093.03
2022-07-28T18:46:47.633Z,102095.25
2022-07-28T18:49:54.102Z,102097.34
2022-07-28T18:52:59.430Z,102102.47
2022-07-28T18:56:05.761Z,102101.78
2022-07-28T18:59:10.980Z,102109.75
2022-07-28T19:02:17.642Z,102111.34
2022-07-28T19:05:24.898Z,102114.78
2022-07-28T19:08:30.413Z,102123.63
2022-07-28T19:11:35.544Z,102127.28
2022-07-28T19:14:40.983Z,102137.97
2022-07-28T19:17:46.473Z,102143.53
2022-07-28T19:21:15.167Z,102141.72
2022-07-28T19:24:20.910Z,102149.13
2022-07-28T19:27:26.244Z,102148.38
2022-07-28T19:30:36.310Z,102158.47
2022-07-28T19:33:43.809Z,102156.19
2022-07-28T19:36:53.002Z,102158.31
2022-07-28T19:39:58.187Z,102155.47
2022-07-28T19:43:03.461Z,102163.44
2022-07-28T19:46:08.832Z,102166.13
2022-07-28T19:49:16.998Z,102170.00
2022-07-28T19:52:24.029Z,102170.88
2022-07-28T19:55:32.362Z,102176.13
2022-07-28T19:58:37.850Z,102185.75
2022-07-28T20:01:46.873Z,102178.63
2022-07-28T20:04:56.035Z,102182.22
2022-07-28T20:08:02.958Z,102195.28
2022-07-28T20:11:08.782Z,102187.63
2022-07-28T20:14:14.097Z,102198.75
2022-07-28T20:17:37.052Z,102205.44
2022-07-28T20:20:42.982Z,102201.91
2022-07-28T20:23:49.545Z,102208.75
2022-07-28T20:26:54.660Z,102201.97
2022-07-28T20:29:59.905Z,102206.25
2022-07-28T20:33:06.204Z,102215.06
2022-07-28T20:36:13.104Z,102224.00
2022-07-28T20:39:43.271Z,102223.13
2022-07-28T20:42:47.547Z,102227.00
2022-07-28T20:45:56.464Z,102232.97
2022-07-28T20:49:02.174Z,102230.41
2022-07-28T20:52:07.868Z,102238.28
2022-07-28T20:55:14.501Z,102238.28
2022-07-28T20:58:19.863Z,102241.59
2022-07-28T21:01:26.251Z,102242.75
2022-07-28T21:04:32.118Z,102248.72
2022-07-28T21:08:05.433Z,102240.34
2022-07-28T21:11:05.370Z,102254.34
2022-07-28T21:14:11.872Z,102261.38
2022-07-28T21:17:16.996Z,102262.34
2022-07-28T21:20:22.175Z,102263.19
2022-07-28T21:23:27.538Z,102267.50
2022-07-28T21:26:34.040Z,102271.41
2022-07-28T21:29:38.417Z,102271.28
2022-07-28T21:32:43.522Z,102272.25
2022-07-28T21:35:49.438Z,102271.28
2022-07-28T21:38:54.792Z,102280.06
2022-07-28T21:42:04.701Z,102270.72
2022-07-28T21:45:13.242Z,102281.00
2022-07-28T21:48:20.157Z,102280.28
2022-07-28T21:51:26.468Z,102283.91
2022-07-28T21:54:31.735Z,102286.41
2022-07-28T21:57:38.433Z,102288.34
2022-07-28T22:00:44.389Z,102291.78
2022-07-28T22:03:50.082Z,102285.97
2022-07-28T22:06:55.140Z,102290.28
2022-07-28T22:10:00.625Z,102288.50
2022-07-28T22:13:07.374Z,102295.44
2022-07-28T22:16:12.849Z,102296.25
2022-07-28T22:19:18.175Z,102291.94
2022-07-28T22:22:23.351Z,102291.06
2022-07-28T22:25:28.888Z,102293.88
2022-07-28T22:28:35.697Z,102297.34
2022-07-28T22:31:42.264Z,102294.78
2022-07-28T22:34:47.573Z,102300.94
2022-07-28T22:37:53.000Z,102308.88
2022-07-28T22:40:58.676Z,102305.69
2022-07-28T22:44:05.279Z,102306.47
2022-07-28T22:47:11.567Z,102297.88
2022-07-28T22:50:17.105Z,102306.28
2022-07-28T22:53:22.485Z,102311.41
2022-07-28T22:56:28.039Z,102322.66
2022-07-28T22:59:51.006Z,102317.81
2022-07-28T23:02:56.897Z,102322.94
2022-07-28T23:06:03.031Z,102321.38
2022-07-28T23:09:08.432Z,102324.22
2022-07-28T23:12:15.180Z,102330.88
2022-07-28T23:15:22.144Z,102331.16
2022-07-28T23:18:27.576Z,102326.00
2022-07-28T23:21:32.717Z,102332.06
2022-07-28T23:24:38.008Z,102326.84
2022-07-28T23:27:43.209Z,102329.81
2022-07-28T23:30:52.092Z,102330.53
2022-07-28T23:33:57.740Z,102330.59
2022-07-28T23:37:03.378Z,102333.31
2022-07-28T23:40:10.609Z,102329.63
2022-07-28T23:43:16.981Z,102331.47
2022-07-28T23:46:23.818Z,102331.53
2022-07-28T23:49:29.137Z,102342.03
2022-07-28T23:52:34.519Z,102340.44
2022-07-28T23:55:39.748Z,102339.59
2022-07-28T23:58:45.046Z,102345.53
